sensor_id;sensor_type;location;lat;lon;timestamp;pressure;altitude;pressure_sealevel;temperature;humidity
12349;BME280;5974;42.710;27.258;2023-11-18T00:02:05;99149.16;;;13.24;100.00
12349;BME280;5974;42.710;27.258;2023-11-18T00:04:31;99118.31;;;13.28;100.00
12349;BME280;5974;42.710;27.258;2023-11-18T00:06:58;99141.13;;;13.52;100.00
12349;BME280;5974;42.710;27.258;2023-11-18T00:09:25;99117.13;;;13.44;100.00
12349;BME280;5974;42.710;27.258;2023-11-18T00:11:52;99146.44;;;13.38;100.00
12349;BME280;5974;42.710;27.258;2023-11-18T00:14:19;99142.25;;;13.36;100.00
12349;BME280;5974;42.710;27.258;2023-11-18T00:16:47;99141.09;;;13.40;100.00
12349;BME280;5974;42.710;27.258;2023-11-18T00:19:14;99148.13;;;13.39;100.00
12349;BME280;5974;42.710;27.258;2023-11-18T00:21:42;99153.91;;;13.32;100.00
12349;BME280;5974;42.710;27.258;2023-11-18T00:24:09;99151.28;;;13.44;100.00
12349;BME280;5974;42.710;27.258;2023-11-18T00:26:36;99162.63;;;13.05;100.00
12349;BME280;5974;42.710;27.258;2023-11-18T00:29:03;99158.16;;;12.81;100.00
12349;BME280;5974;42.710;27.258;2023-11-18T00:31:30;99153.91;;;13.05;100.00
12349;BME280;5974;42.710;27.258;2023-11-18T00:33:58;99160.06;;;12.65;100.00
12349;BME280;5974;42.710;27.258;2023-11-18T00:36:25;99142.91;;;12.46;100.00
12349;BME280;5974;42.710;27.258;2023-11-18T00:38:52;99151.44;;;12.89;100.00
12349;BME280;5974;42.710;27.258;2023-11-18T00:41:19;99143.72;;;12.61;100.00
12349;BME280;5974;42.710;27.258;2023-11-18T00:43:47;99127.88;;;12.22;100.00
12349;BME280;5974;42.710;27.258;2023-11-18T00:46:14;99134.88;;;12.89;100.00
12349;BME280;5974;42.710;27.258;2023-11-18T00:48:40;99121.00;;;13.14;100.00
12349;BME280;5974;42.710;27.258;2023-11-18T00:51:09;99105.03;;;13.17;100.00
12349;BME280;5974;42.710;27.258;2023-11-18T00:53:36;99095.19;;;13.33;100.00
12349;BME280;5974;42.710;27.258;2023-11-18T00:56:03;99097.25;;;13.02;100.00
12349;BME280;5974;42.710;27.258;2023-11-18T00:58:33;99102.97;;;12.56;100.00
12349;BME280;5974;42.710;27.258;2023-11-18T01:01:02;99102.25;;;12.13;100.00
12349;BME280;5974;42.710;27.258;2023-11-18T01:03:32;99116.16;;;11.86;100.00
12349;BME280;5974;42.710;27.258;2023-11-18T01:05:59;99113.06;;;11.66;100.00
12349;BME280;5974;42.710;27.258;2023-11-18T01:08:27;99115.75;;;12.21;100.00
12349;BME280;5974;42.710;27.258;2023-11-18T01:10:54;99105.84;;;12.12;100.00
12349;BME280;5974;42.710;27.258;2023-11-18T01:13:21;99044.34;;;11.62;100.00
12349;BME280;5974;42.710;27.258;2023-11-18T01:15:48;99101.41;;;11.71;100.00
12349;BME280;5974;42.710;27.258;2023-11-18T01:18:15;99082.56;;;11.65;100.00
12349;BME280;5974;42.710;27.258;2023-11-18T01:20:43;99083.13;;;11.56;100.00
12349;BME280;5974;42.710;27.258;2023-11-18T01:23:09;99065.66;;;11.28;100.00
12349;BME280;5974;42.710;27.258;2023-11-18T01:25:38;99067.03;;;11.19;100.00
12349;BME280;5974;42.710;27.258;2023-11-18T01:28:05;99059.38;;;11.30;100.00
12349;BME280;5974;42.710;27.258;2023-11-18T01:30:32;99059.66;;;11.54;100.00
12349;BME280;5974;42.710;27.258;2023-11-18T01:32:59;99050.78;;;11.28;100.00
12349;BME280;5974;42.710;27.258;2023-11-18T01:35:26;99038.00;;;11.38;100.00
12349;BME280;5974;42.710;27.258;2023-11-18T01:37:53;99046.66;;;11.67;100.00
12349;BME280;5974;42.710;27.258;2023-11-18T01:40:21;99039.94;;;11.63;100.00
12349;BME280;5974;42.710;27.258;2023-11-18T01:42:49;99045.91;;;11.65;100.00
12349;BME280;5974;42.710;27.258;2023-11-18T01:45:16;99044.22;;;11.35;100.00
12349;BME280;5974;42.710;27.258;2023-11-18T01:47:44;99052.75;;;11.39;100.00
12349;BME280;5974;42.710;27.258;2023-11-18T01:50:12;99060.19;;;11.03;100.00
12349;BME280;5974;42.710;27.258;2023-11-18T01:52:40;99072.81;;;11.10;100.00
12349;BME280;5974;42.710;27.258;2023-11-18T01:55:08;99078.84;;;10.82;100.00
12349;BME280;5974;42.710;27.258;2023-11-18T01:57:36;99074.72;;;10.78;100.00
12349;BME280;5974;42.710;27.258;2023-11-18T02:00:05;99087.59;;;11.25;100.00
12349;BME280;5974;42.710;27.258;2023-11-18T02:02:33;99087.91;;;11.35;100.00
12349;BME280;5974;42.710;27.258;2023-11-18T02:05:01;99094.00;;;10.92;100.00
12349;BME280;5974;42.710;27.258;2023-11-18T02:07:28;99090.72;;;11.02;100.00
12349;BME280;5974;42.710;27.258;2023-11-18T02:09:55;99098.72;;;11.29;100.00
12349;BME280;5974;42.710;27.258;2023-11-18T02:12:27;99095.81;;;11.19;100.00
12349;BME280;5974;42.710;27.258;2023-11-18T02:14:57;99091.50;;;11.04;100.00
12349;BME280;5974;42.710;27.258;2023-11-18T02:17:27;99085.72;;;10.83;100.00
12349;BME280;5974;42.710;27.258;2023-11-18T02:19:56;99116.25;;;10.83;100.00
12349;BME280;5974;42.710;27.258;2023-11-18T02:22:24;99109.22;;;10.69;100.00
12349;BME280;5974;42.710;27.258;2023-11-18T02:24:52;99108.31;;;10.70;100.00
12349;BME280;5974;42.710;27.258;2023-11-18T02:27:20;99107.47;;;10.54;100.00
12349;BME280;5974;42.710;27.258;2023-11-18T02:29:50;99104.03;;;10.83;100.00
12349;BME280;5974;42.710;27.258;2023-11-18T02:32:22;99094.19;;;11.03;100.00
12349;BME280;5974;42.710;27.258;2023-11-18T02:34:58;99105.97;;;10.80;100.00
12349;BME280;5974;42.710;27.258;2023-11-18T02:37:29;99107.84;;;10.78;100.00
12349;BME280;5974;42.710;27.258;2023-11-18T02:40:01;99117.00;;;11.15;100.00
12349;BME280;5974;42.710;27.258;2023-11-18T02:42:35;99106.50;;;10.71;100.00
12349;BME280;5974;42.710;27.258;2023-11-18T02:45:05;99120.91;;;10.48;100.00
12349;BME280;5974;42.710;27.258;2023-11-18T02:47:33;99106.47;;;10.57;100.00
12349;BME280;5974;42.710;27.258;2023-11-18T02:50:00;99119.19;;;10.63;100.00
12349;BME280;5974;42.710;27.258;2023-11-18T02:52:35;99105.59;;;10.72;100.00
12349;BME280;5974;42.710;27.258;2023-11-18T02:55:01;99115.84;;;10.45;100.00
12349;BME280;5974;42.710;27.258;2023-11-18T02:57:28;99119.66;;;10.24;100.00
12349;BME280;5974;42.710;27.258;2023-11-18T02:59:56;99121.75;;;10.49;100.00
12349;BME280;5974;42.710;27.258;2023-11-18T03:02:25;99122.91;;;10.27;100.00
12349;BME280;5974;42.710;27.258;2023-11-18T03:04:53;99076.22;;;10.21;100.00
12349;BME280;5974;42.710;27.258;2023-11-18T03:07:20;99096.09;;;10.55;100.00
12349;BME280;5974;42.710;27.258;2023-11-18T03:09:46;99090.75;;;10.27;100.00
12349;BME280;5974;42.710;27.258;2023-11-18T03:12:13;99095.28;;;10.23;100.00
12349;BME280;5974;42.710;27.258;2023-11-18T03:14:41;99088.00;;;9.97;100.00
12349;BME280;5974;42.710;27.258;2023-11-18T03:17:09;99103.31;;;10.20;100.00
12349;BME280;5974;42.710;27.258;2023-11-18T03:19:36;99104.78;;;10.24;100.00
12349;BME280;5974;42.710;27.258;2023-11-18T03:22:03;99100.88;;;10.17;100.00
12349;BME280;5974;42.710;27.258;2023-11-18T03:24:30;99099.13;;;9.85;100.00
12349;BME280;5974;42.710;27.258;2023-11-18T03:26:57;99090.63;;;9.49;100.00
12349;BME280;5974;42.710;27.258;2023-11-18T03:29:24;99076.28;;;9.73;100.00
12349;BME280;5974;42.710;27.258;2023-11-18T03:31:51;99061.47;;;9.73;100.00
12349;BME280;5974;42.710;27.258;2023-11-18T03:34:19;99053.63;;;9.58;100.00
12349;BME280;5974;42.710;27.258;2023-11-18T03:36:46;99060.22;;;9.65;100.00
12349;BME280;5974;42.710;27.258;2023-11-18T03:39:13;99048.22;;;9.45;100.00
12349;BME280;5974;42.710;27.258;2023-11-18T03:41:40;99043.50;;;9.36;100.00
12349;BME280;5974;42.710;27.258;2023-11-18T03:44:10;99027.63;;;9.23;100.00
12349;BME280;5974;42.710;27.258;2023-11-18T03:46:37;99032.25;;;9.18;100.00
12349;BME280;5974;42.710;27.258;2023-11-18T03:49:04;99017.84;;;9.29;100.00
12349;BME280;5974;42.710;27.258;2023-11-18T03:51:32;99016.25;;;9.09;100.00
12349;BME280;5974;42.710;27.258;2023-11-18T03:53:59;98949.50;;;8.89;100.00
12349;BME280;5974;42.710;27.258;2023-11-18T03:56:26;98986.47;;;8.80;100.00
12349;BME280;5974;42.710;27.258;2023-11-18T03:58:54;98990.41;;;8.89;100.00
12349;BME280;5974;42.710;27.258;2023-11-18T04:01:21;98992.38;;;8.84;100.00
12349;BME280;5974;42.710;27.258;2023-11-18T04:03:48;99000.44;;;8.79;100.00
12349;BME280;5974;42.710;27.258;2023-11-18T04:06:14;99007.16;;;8.83;100.00
12349;BME280;5974;42.710;27.258;2023-11-18T04:08:44;99004.75;;;8.63;100.00
12349;BME280;5974;42.710;27.258;2023-11-18T04:11:11;99010.34;;;8.73;100.00
12349;BME280;5974;42.710;27.258;2023-11-18T04:13:39;99009.94;;;8.80;100.00
12349;BME280;5974;42.710;27.258;2023-11-18T04:16:09;98976.00;;;8.64;100.00
12349;BME280;5974;42.710;27.258;2023-11-18T04:18:38;98991.63;;;8.64;100.00
12349;BME280;5974;42.710;27.258;2023-11-18T04:21:05;98990.09;;;8.78;100.00
12349;BME280;5974;42.710;27.258;2023-11-18T04:23:34;98997.47;;;9.02;100.00
12349;BME280;5974;42.710;27.258;2023-11-18T04:26:03;98999.50;;;8.80;100.00
12349;BME280;5974;42.710;27.258;2023-11-18T04:28:30;99004.72;;;8.97;100.00
12349;BME280;5974;42.710;27.258;2023-11-18T04:30:57;99018.06;;;8.91;100.00
12349;BME280;5974;42.710;27.258;2023-11-18T04:33:24;99010.56;;;8.85;100.00
12349;BME280;5974;42.710;27.258;2023-11-18T04:35:51;99010.50;;;9.02;100.00
12349;BME280;5974;42.710;27.258;2023-11-18T04:38:18;98999.94;;;9.05;100.00
12349;BME280;5974;42.710;27.258;2023-11-18T04:40:45;99014.50;;;8.92;100.00
12349;BME280;5974;42.710;27.258;2023-11-18T04:43:13;99017.59;;;8.83;100.00
12349;BME280;5974;42.710;27.258;2023-11-18T04:45:40;99016.78;;;8.83;100.00
12349;BME280;5974;42.710;27.258;2023-11-18T04:48:07;99016.78;;;8.98;100.00
12349;BME280;5974;42.710;27.258;2023-11-18T04:50:34;99018.47;;;9.32;100.00
12349;BME280;5974;42.710;27.258;2023-11-18T04:53:01;99010.34;;;9.05;100.00
12349;BME280;5974;42.710;27.258;2023-11-18T04:55:29;99017.69;;;9.14;100.00
12349;BME280;5974;42.710;27.258;2023-11-18T04:57:56;99025.56;;;8.80;100.00
12349;BME280;5974;42.710;27.258;2023-11-18T05:00:24;99014.06;;;8.84;100.00
12349;BME280;5974;42.710;27.258;2023-11-18T05:02:54;99005.13;;;9.05;100.00
12349;BME280;5974;42.710;27.258;2023-11-18T05:05:21;99003.81;;;8.81;100.00
12349;BME280;5974;42.710;27.258;2023-11-18T05:07:48;98992.31;;;8.68;100.00
12349;BME280;5974;42.710;27.258;2023-11-18T05:10:14;99002.50;;;8.55;100.00
12349;BME280;5974;42.710;27.258;2023-11-18T05:12:41;98999.28;;;8.67;100.00
12349;BME280;5974;42.710;27.258;2023-11-18T05:15:09;99001.03;;;8.84;100.00
12349;BME280;5974;42.710;27.258;2023-11-18T05:17:37;98981.06;;;8.50;100.00
12349;BME280;5974;42.710;27.258;2023-11-18T05:20:07;98951.94;;;8.59;100.00
12349;BME280;5974;42.710;27.258;2023-11-18T05:22:34;98972.09;;;8.56;100.00
12349;BME280;5974;42.710;27.258;2023-11-18T05:25:02;98959.22;;;8.70;100.00
12349;BME280;5974;42.710;27.258;2023-11-18T05:27:29;98952.72;;;8.44;100.00
12349;BME280;5974;42.710;27.258;2023-11-18T05:29:56;98965.59;;;8.47;100.00
12349;BME280;5974;42.710;27.258;2023-11-18T05:32:26;98969.28;;;8.43;100.00
12349;BME280;5974;42.710;27.258;2023-11-18T05:34:55;98976.88;;;8.48;100.00
12349;BME280;5974;42.710;27.258;2023-11-18T05:37:23;98963.00;;;8.30;100.00
12349;BME280;5974;42.710;27.258;2023-11-18T05:39:50;98985.16;;;8.39;100.00
12349;BME280;5974;42.710;27.258;2023-11-18T05:42:24;98990.72;;;8.31;100.00
12349;BME280;5974;42.710;27.258;2023-11-18T05:44:51;98986.34;;;8.32;100.00
12349;BME280;5974;42.710;27.258;2023-11-18T05:47:24;98994.56;;;8.41;100.00
12349;BME280;5974;42.710;27.258;2023-11-18T05:49:51;99001.50;;;8.24;100.00
12349;BME280;5974;42.710;27.258;2023-11-18T05:52:19;98995.50;;;8.22;100.00
12349;BME280;5974;42.710;27.258;2023-11-18T05:54:48;98984.28;;;8.38;100.00
12349;BME280;5974;42.710;27.258;2023-11-18T05:57:15;98992.03;;;8.40;100.00
12349;BME280;5974;42.710;27.258;2023-11-18T05:59:42;98992.22;;;8.18;100.00
12349;BME280;5974;42.710;27.258;2023-11-18T06:02:09;99008.72;;;8.36;100.00
12349;BME280;5974;42.710;27.258;2023-11-18T06:04:38;99017.91;;;8.07;100.00
12349;BME280;5974;42.710;27.258;2023-11-18T06:07:05;99023.38;;;8.19;100.00
12349;BME280;5974;42.710;27.258;2023-11-18T06:09:35;99024.16;;;8.03;100.00
12349;BME280;5974;42.710;27.258;2023-11-18T06:12:03;99018.75;;;7.90;100.00
12349;BME280;5974;42.710;27.258;2023-11-18T06:14:34;99005.13;;;8.02;100.00
12349;BME280;5974;42.710;27.258;2023-11-18T06:17:01;99013.38;;;7.93;100.00
12349;BME280;5974;42.710;27.258;2023-11-18T06:19:28;99046.97;;;7.98;100.00
12349;BME280;5974;42.710;27.258;2023-11-18T06:21:54;99035.53;;;8.02;100.00
12349;BME280;5974;42.710;27.258;2023-11-18T06:24:21;99030.22;;;8.03;100.00
12349;BME280;5974;42.710;27.258;2023-11-18T06:26:49;99028.41;;;8.05;100.00
12349;BME280;5974;42.710;27.258;2023-11-18T06:29:17;99019.03;;;8.20;100.00
12349;BME280;5974;42.710;27.258;2023-11-18T06:31:44;98995.09;;;7.95;100.00
12349;BME280;5974;42.710;27.258;2023-11-18T06:34:10;99004.63;;;7.77;100.00
12349;BME280;5974;42.710;27.258;2023-11-18T06:36:38;98981.41;;;7.54;100.00
12349;BME280;5974;42.710;27.258;2023-11-18T06:39:05;98993.31;;;7.41;100.00
12349;BME280;5974;42.710;27.258;2023-11-18T06:41:33;98989.78;;;7.42;100.00
12349;BME280;5974;42.710;27.258;2023-11-18T06:44:05;98981.06;;;7.24;100.00
12349;BME280;5974;42.710;27.258;2023-11-18T06:46:38;99017.59;;;7.21;100.00
12349;BME280;5974;42.710;27.258;2023-11-18T06:49:06;99013.41;;;7.37;100.00
12349;BME280;5974;42.710;27.258;2023-11-18T06:51:34;99019.72;;;7.13;100.00
12349;BME280;5974;42.710;27.258;2023-11-18T06:54:03;99001.97;;;7.23;100.00
12349;BME280;5974;42.710;27.258;2023-11-18T06:56:35;99013.56;;;7.34;100.00
12349;BME280;5974;42.710;27.258;2023-11-18T06:59:04;98987.13;;;7.25;100.00
12349;BME280;5974;42.710;27.258;2023-11-18T07:01:32;98983.81;;;7.21;100.00
12349;BME280;5974;42.710;27.258;2023-11-18T07:03:59;98921.38;;;7.04;100.00
12349;BME280;5974;42.710;27.258;2023-11-18T07:06:26;98964.75;;;7.02;100.00
12349;BME280;5974;42.710;27.258;2023-11-18T07:08:53;98948.59;;;6.95;100.00
12349;BME280;5974;42.710;27.258;2023-11-18T07:11:21;98931.97;;;6.99;100.00
12349;BME280;5974;42.710;27.258;2023-11-18T07:13:49;98926.72;;;7.01;100.00
12349;BME280;5974;42.710;27.258;2023-11-18T07:16:23;98940.44;;;6.84;100.00
12349;BME280;5974;42.710;27.258;2023-11-18T07:18:50;98938.34;;;6.92;100.00
12349;BME280;5974;42.710;27.258;2023-11-18T07:21:17;98923.03;;;6.86;100.00
12349;BME280;5974;42.710;27.258;2023-11-18T07:23:43;98897.47;;;6.77;100.00
12349;BME280;5974;42.710;27.258;2023-11-18T07:26:10;98902.75;;;6.76;100.00
12349;BME280;5974;42.710;27.258;2023-11-18T07:28:39;98924.84;;;6.66;100.00
12349;BME280;5974;42.710;27.258;2023-11-18T07:31:06;98930.66;;;6.71;100.00
12349;BME280;5974;42.710;27.258;2023-11-18T07:33:34;98948.56;;;6.77;100.00
12349;BME280;5974;42.710;27.258;2023-11-18T07:36:01;98956.81;;;6.86;100.00
12349;BME280;5974;42.710;27.258;2023-11-18T07:38:31;98960.78;;;6.75;100.00
12349;BME280;5974;42.710;27.258;2023-11-18T07:41:00;98965.59;;;7.02;100.00
12349;BME280;5974;42.710;27.258;2023-11-18T07:43:28;98969.66;;;6.89;100.00
12349;BME280;5974;42.710;27.258;2023-11-18T07:45:55;98988.13;;;6.63;100.00
12349;BME280;5974;42.710;27.258;2023-11-18T07:48:22;98997.69;;;6.83;100.00
12349;BME280;5974;42.710;27.258;2023-11-18T07:50:50;98988.84;;;7.05;100.00
12349;BME280;5974;42.710;27.258;2023-11-18T07:53:17;98999.13;;;7.08;100.00
12349;BME280;5974;42.710;27.258;2023-11-18T07:55:44;98993.75;;;7.32;100.00
12349;BME280;5974;42.710;27.258;2023-11-18T07:58:13;98980.59;;;7.35;100.00
12349;BME280;5974;42.710;27.258;2023-11-18T08:00:40;98968.50;;;7.15;100.00
12349;BME280;5974;42.710;27.258;2023-11-18T08:03:08;98973.38;;;7.23;100.00
12349;BME280;5974;42.710;27.258;2023-11-18T08:05:37;98972.66;;;7.38;100.00
12349;BME280;5974;42.710;27.258;2023-11-18T08:08:06;98957.59;;;7.63;100.00
12349;BME280;5974;42.710;27.258;2023-11-18T08:10:34;98954.94;;;7.46;100.00
12349;BME280;5974;42.710;27.258;2023-11-18T08:13:03;98971.81;;;7.56;100.00
12349;BME280;5974;42.710;27.258;2023-11-18T08:15:30;98938.19;;;7.51;100.00
12349;BME280;5974;42.710;27.258;2023-11-18T08:17:57;98964.91;;;7.55;100.00
12349;BME280;5974;42.710;27.258;2023-11-18T08:20:25;98957.97;;;7.55;100.00
12349;BME280;5974;42.710;27.258;2023-11-18T08:22:53;98938.59;;;7.97;100.00
12349;BME280;5974;42.710;27.258;2023-11-18T08:25:22;98950.34;;;7.51;100.00
12349;BME280;5974;42.710;27.258;2023-11-18T08:27:48;98946.56;;;7.58;100.00
12349;BME280;5974;42.710;27.258;2023-11-18T08:30:17;98958.28;;;7.67;100.00
12349;BME280;5974;42.710;27.258;2023-11-18T08:32:46;98970.59;;;7.63;100.00
12349;BME280;5974;42.710;27.258;2023-11-18T08:35:14;98963.88;;;7.40;100.00
12349;BME280;5974;42.710;27.258;2023-11-18T08:37:41;99002.22;;;7.35;100.00
12349;BME280;5974;42.710;27.258;2023-11-18T08:40:10;99017.81;;;7.54;100.00
12349;BME280;5974;42.710;27.258;2023-11-18T08:42:42;99029.88;;;7.56;100.00
12349;BME280;5974;42.710;27.258;2023-11-18T08:45:14;99019.47;;;7.56;100.00
12349;BME280;5974;42.710;27.258;2023-11-18T08:47:43;99011.38;;;7.81;100.00
12349;BME280;5974;42.710;27.258;2023-11-18T08:50:12;99022.97;;;7.74;100.00
12349;BME280;5974;42.710;27.258;2023-11-18T08:52:39;99025.44;;;7.58;100.00
12349;BME280;5974;42.710;27.258;2023-11-18T08:55:10;99015.50;;;7.85;100.00
12349;BME280;5974;42.710;27.258;2023-11-18T08:57:45;99009.72;;;7.79;100.00
12349;BME280;5974;42.710;27.258;2023-11-18T09:00:23;98975.09;;;7.78;100.00
12349;BME280;5974;42.710;27.258;2023-11-18T09:03:12;98957.53;;;7.46;100.00
12349;BME280;5974;42.710;27.258;2023-11-18T09:05:44;98961.00;;;7.46;100.00
12349;BME280;5974;42.710;27.258;2023-11-18T09:08:23;98959.19;;;7.84;100.00
12349;BME280;5974;42.710;27.258;2023-11-18T09:10:50;98949.28;;;7.74;100.00
12349;BME280;5974;42.710;27.258;2023-11-18T09:13:21;98948.00;;;7.82;100.00
12349;BME280;5974;42.710;27.258;2023-11-18T09:15:48;98936.59;;;7.85;100.00
12349;BME280;5974;42.710;27.258;2023-11-18T09:18:15;98941.97;;;7.63;100.00
12349;BME280;5974;42.710;27.258;2023-11-18T09:20:43;98947.81;;;7.68;100.00
12349;BME280;5974;42.710;27.258;2023-11-18T09:23:12;98961.34;;;7.93;100.00
12349;BME280;5974;42.710;27.258;2023-11-18T09:25:41;98964.91;;;7.55;100.00
12349;BME280;5974;42.710;27.258;2023-11-18T09:28:12;98976.31;;;7.88;100.00
12349;BME280;5974;42.710;27.258;2023-11-18T09:30:42;98965.06;;;7.88;100.00
12349;BME280;5974;42.710;27.258;2023-11-18T09:33:19;98969.00;;;7.96;100.00
12349;BME280;5974;42.710;27.258;2023-11-18T09:35:55;98975.25;;;8.45;100.00
12349;BME280;5974;42.710;27.258;2023-11-18T09:38:25;98967.00;;;7.84;100.00
12349;BME280;5974;42.710;27.258;2023-11-18T09:40:53;98967.28;;;7.78;100.00
12349;BME280;5974;42.710;27.258;2023-11-18T09:43:20;98958.94;;;8.42;100.00
12349;BME280;5974;42.710;27.258;2023-11-18T09:45:50;98962.22;;;8.28;100.00
12349;BME280;5974;42.710;27.258;2023-11-18T09:48:21;98972.84;;;8.24;100.00
12349;BME280;5974;42.710;27.258;2023-11-18T09:50:51;98967.00;;;8.01;100.00
12349;BME280;5974;42.710;27.258;2023-11-18T09:53:19;98953.44;;;7.95;100.00
12349;BME280;5974;42.710;27.258;2023-11-18T09:55:51;98946.88;;;7.69;100.00
12349;BME280;5974;42.710;27.258;2023-11-18T09:58:20;98934.97;;;7.82;100.00
12349;BME280;5974;42.710;27.258;2023-11-18T10:00:57;98921.75;;;7.51;100.00
12349;BME280;5974;42.710;27.258;2023-11-18T10:03:24;98919.00;;;7.54;100.00
12349;BME280;5974;42.710;27.258;2023-11-18T10:05:52;98883.88;;;7.81;100.00
12349;BME280;5974;42.710;27.258;2023-11-18T10:08:22;98897.50;;;7.86;100.00
12349;BME280;5974;42.710;27.258;2023-11-18T10:10:51;98900.13;;;8.21;100.00
12349;BME280;5974;42.710;27.258;2023-11-18T10:13:31;98912.41;;;8.00;100.00
12349;BME280;5974;42.710;27.258;2023-11-18T10:16:01;98910.84;;;7.61;100.00
12349;BME280;5974;42.710;27.258;2023-11-18T10:18:30;98898.81;;;8.12;100.00
12349;BME280;5974;42.710;27.258;2023-11-18T10:21:00;98911.31;;;7.70;100.00
12349;BME280;5974;42.710;27.258;2023-11-18T10:23:29;98919.50;;;7.62;100.00
12349;BME280;5974;42.710;27.258;2023-11-18T10:25:59;98903.66;;;7.67;100.00
12349;BME280;5974;42.710;27.258;2023-11-18T10:28:29;98906.66;;;7.76;100.00
12349;BME280;5974;42.710;27.258;2023-11-18T10:31:01;98904.91;;;7.59;100.00
12349;BME280;5974;42.710;27.258;2023-11-18T10:33:30;98903.75;;;7.65;100.00
12349;BME280;5974;42.710;27.258;2023-11-18T10:35:58;98894.56;;;7.58;100.00
12349;BME280;5974;42.710;27.258;2023-11-18T10:38:29;98909.47;;;7.54;100.00
12349;BME280;5974;42.710;27.258;2023-11-18T10:40:57;98913.19;;;7.49;100.00
12349;BME280;5974;42.710;27.258;2023-11-18T10:43:24;98920.81;;;7.35;100.00
12349;BME280;5974;42.710;27.258;2023-11-18T10:46:05;98898.09;;;7.38;100.00
12349;BME280;5974;42.710;27.258;2023-11-18T10:48:39;98907.44;;;7.42;100.00
12349;BME280;5974;42.710;27.258;2023-11-18T10:51:09;98942.44;;;7.35;100.00
12349;BME280;5974;42.710;27.258;2023-11-18T10:53:39;98931.75;;;7.41;100.00
12349;BME280;5974;42.710;27.258;2023-11-18T10:56:17;98917.00;;;7.42;100.00
12349;BME280;5974;42.710;27.258;2023-11-18T10:58:49;98898.53;;;7.29;100.00
12349;BME280;5974;42.710;27.258;2023-11-18T11:01:27;98892.41;;;7.49;100.00
12349;BME280;5974;42.710;27.258;2023-11-18T11:03:54;98885.06;;;7.57;100.00
12349;BME280;5974;42.710;27.258;2023-11-18T11:06:23;98888.75;;;7.53;100.00
12349;BME280;5974;42.710;27.258;2023-11-18T11:08:50;98891.53;;;7.48;100.00
12349;BME280;5974;42.710;27.258;2023-11-18T11:11:20;98898.19;;;7.37;100.00
12349;BME280;5974;42.710;27.258;2023-11-18T11:13:49;98885.94;;;7.39;100.00
12349;BME280;5974;42.710;27.258;2023-11-18T11:16:23;98832.94;;;7.41;100.00
12349;BME280;5974;42.710;27.258;2023-11-18T11:18:55;98871.94;;;7.94;100.00
12349;BME280;5974;42.710;27.258;2023-11-18T11:21:26;98872.16;;;7.73;100.00
12349;BME280;5974;42.710;27.258;2023-11-18T11:24:04;98865.19;;;7.56;100.00
12349;BME280;5974;42.710;27.258;2023-11-18T11:26:42;98862.44;;;7.59;100.00
12349;BME280;5974;42.710;27.258;2023-11-18T11:29:25;98845.38;;;8.05;100.00
12349;BME280;5974;42.710;27.258;2023-11-18T11:32:02;98846.22;;;8.05;100.00
12349;BME280;5974;42.710;27.258;2023-11-18T11:34:40;98826.66;;;7.81;100.00
12349;BME280;5974;42.710;27.258;2023-11-18T11:37:08;98862.06;;;7.84;100.00
12349;BME280;5974;42.710;27.258;2023-11-18T11:39:37;98855.47;;;7.94;100.00
12349;BME280;5974;42.710;27.258;2023-11-18T11:42:13;98839.19;;;7.73;100.00
12349;BME280;5974;42.710;27.258;2023-11-18T11:44:43;98845.78;;;7.80;100.00
12349;BME280;5974;42.710;27.258;2023-11-18T11:47:12;98846.00;;;7.76;100.00
12349;BME280;5974;42.710;27.258;2023-11-18T11:49:47;98841.56;;;7.95;100.00
12349;BME280;5974;42.710;27.258;2023-11-18T11:52:21;98845.59;;;7.66;100.00
12349;BME280;5974;42.710;27.258;2023-11-18T11:54:58;98844.88;;;7.81;100.00
12349;BME280;5974;42.710;27.258;2023-11-18T11:57:28;98852.66;;;7.64;100.00
12349;BME280;5974;42.710;27.258;2023-11-18T11:59:55;98801.13;;;7.36;100.00
12349;BME280;5974;42.710;27.258;2023-11-18T12:02:25;98857.16;;;7.60;100.00
12349;BME280;5974;42.710;27.258;2023-11-18T12:04:55;98853.69;;;7.60;100.00
12349;BME280;5974;42.710;27.258;2023-11-18T12:07:25;98851.34;;;7.73;100.00
12349;BME280;5974;42.710;27.258;2023-11-18T12:09:56;98837.63;;;7.35;100.00
12349;BME280;5974;42.710;27.258;2023-11-18T12:12:25;98840.75;;;7.41;100.00
12349;BME280;5974;42.710;27.258;2023-11-18T12:14:54;98833.91;;;7.22;100.00
12349;BME280;5974;42.710;27.258;2023-11-18T12:17:24;98814.91;;;7.38;100.00
12349;BME280;5974;42.710;27.258;2023-11-18T12:19:57;98822.03;;;7.35;100.00
12349;BME280;5974;42.710;27.258;2023-11-18T12:22:25;98812.63;;;7.67;100.00
12349;BME280;5974;42.710;27.258;2023-11-18T12:27:58;98801.91;;;7.38;100.00
12349;BME280;5974;42.710;27.258;2023-11-18T12:30:40;98816.28;;;7.28;100.00
12349;BME280;5974;42.710;27.258;2023-11-18T12:33:23;98797.78;;;6.98;100.00
12349;BME280;5974;42.710;27.258;2023-11-18T12:36:20;98805.50;;;7.00;100.00
12349;BME280;5974;42.710;27.258;2023-11-18T12:42:02;98809.13;;;6.79;100.00
12349;BME280;5974;42.710;27.258;2023-11-18T12:44:37;98822.94;;;6.79;100.00
12349;BME280;5974;42.710;27.258;2023-11-18T12:47:08;98826.72;;;6.72;100.00
12349;BME280;5974;42.710;27.258;2023-11-18T12:49:45;98839.38;;;6.80;100.00
12349;BME280;5974;42.710;27.258;2023-11-18T12:52:15;98832.19;;;7.03;100.00
12349;BME280;5974;42.710;27.258;2023-11-18T12:54:44;98829.88;;;6.97;100.00
12349;BME280;5974;42.710;27.258;2023-11-18T12:57:16;98815.28;;;6.76;100.00
12349;BME280;5974;42.710;27.258;2023-11-18T12:59:43;98842.78;;;6.62;100.00
12349;BME280;5974;42.710;27.258;2023-11-18T13:02:11;98850.16;;;6.71;100.00
12349;BME280;5974;42.710;27.258;2023-11-18T13:04:46;98860.97;;;6.62;100.00
12349;BME280;5974;42.710;27.258;2023-11-18T13:07:15;98851.22;;;6.67;100.00
12349;BME280;5974;42.710;27.258;2023-11-18T13:09:42;98849.09;;;7.12;100.00
12349;BME280;5974;42.710;27.258;2023-11-18T13:12:11;98852.00;;;7.06;100.00
12349;BME280;5974;42.710;27.258;2023-11-18T13:14:41;98855.91;;;6.77;100.00